createdAt,value
2023-04-01T00:01:50.130Z,9.37
2023-04-01T00:04:17.126Z,9.45
2023-04-01T00:06:44.092Z,9.40
2023-04-01T00:09:11.054Z,9.35
2023-04-01T00:11:38.120Z,9.42
2023-04-01T00:14:05.029Z,9.36
2023-04-01T00:16:32.549Z,9.37
2023-04-01T00:18:59.514Z,9.36
2023-04-01T00:21:26.459Z,9.36
2023-04-01T00:23:53.295Z,9.38
2023-04-01T00:26:22.713Z,9.38
2023-04-01T00:28:50.338Z,9.45
2023-04-01T00:31:17.430Z,9.48
2023-04-01T00:33:44.282Z,9.46
2023-04-01T00:36:19.655Z,9.43
2023-04-01T00:38:47.456Z,9.41
2023-04-01T00:41:16.151Z,9.40
2023-04-01T00:43:47.692Z,9.38
2023-04-01T00:46:15.424Z,9.38
2023-04-01T00:48:48.934Z,9.35
2023-04-01T00:51:21.591Z,9.35
2023-04-01T00:53:51.422Z,9.34
2023-04-01T00:56:32.036Z,9.30
2023-04-01T00:59:03.032Z,9.32
2023-04-01T01:01:32.441Z,9.29
2023-04-01T01:03:59.934Z,9.30
2023-04-01T01:06:32.340Z,9.28
2023-04-01T01:12:12.389Z,9.35
2023-04-01T01:14:53.952Z,9.31
2023-04-01T01:20:15.714Z,9.29
2023-04-01T01:23:09.017Z,9.27
2023-04-01T01:25:36.188Z,9.27
2023-04-01T01:28:24.202Z,9.28
2023-04-01T01:34:02.438Z,9.32
2023-04-01T01:36:31.178Z,9.32
2023-04-01T01:38:59.094Z,9.28
2023-04-01T01:43:58.464Z,9.25
2023-04-01T01:46:28.854Z,9.23
2023-04-01T01:49:00.331Z,9.21
2023-04-01T01:51:28.917Z,9.23
2023-04-01T01:53:56.148Z,9.19
2023-04-01T01:56:27.998Z,9.19
2023-04-01T01:59:11.392Z,9.27
2023-04-01T02:01:43.842Z,9.21
2023-04-01T02:04:12.099Z,9.29
2023-04-01T02:06:44.130Z,9.27
2023-04-01T02:09:12.987Z,9.20
2023-04-01T02:11:49.565Z,9.19
2023-04-01T02:14:23.688Z,9.23
2023-04-01T02:17:06.042Z,9.26
2023-04-01T02:19:38.989Z,9.21
2023-04-01T02:22:10.157Z,9.20
2023-04-01T02:24:42.447Z,9.18
2023-04-01T02:27:11.899Z,9.23
2023-04-01T02:29:41.531Z,9.20
2023-04-01T02:32:10.330Z,9.19
2023-04-01T02:34:38.314Z,9.19
2023-04-01T02:37:05.709Z,9.20
2023-04-01T02:39:32.561Z,9.16
2023-04-01T02:41:59.526Z,9.15
2023-04-01T02:44:27.673Z,9.20
2023-04-01T02:46:54.685Z,9.14
2023-04-01T02:49:21.745Z,9.15
2023-04-01T02:51:48.544Z,9.17
2023-04-01T02:54:16.264Z,9.18
2023-04-01T02:56:43.070Z,9.24
2023-04-01T02:59:10.090Z,9.22
2023-04-01T03:01:36.917Z,9.18
2023-04-01T03:04:03.800Z,9.21
2023-04-01T03:08:56.553Z,9.21
2023-04-01T03:11:24.060Z,9.22
2023-04-01T03:13:51.073Z,9.17
2023-04-01T03:16:18.063Z,9.14
2023-04-01T03:18:45.405Z,9.13
2023-04-01T03:21:19.981Z,9.22
2023-04-01T03:23:46.877Z,9.19
2023-04-01T03:26:14.966Z,9.22
2023-04-01T03:28:41.973Z,9.20
2023-04-01T03:31:12.298Z,9.22
2023-04-01T03:33:39.825Z,9.19
2023-04-01T03:36:07.787Z,9.19
2023-04-01T03:38:35.979Z,9.12
2023-04-01T03:41:03.099Z,9.13
2023-04-01T03:45:58.751Z,9.16
2023-04-01T03:48:26.957Z,9.11
2023-04-01T03:50:53.947Z,9.20
2023-04-01T03:53:21.058Z,9.19
2023-04-01T03:55:48.278Z,9.20
2023-04-01T03:58:15.236Z,9.18
2023-04-01T04:00:45.441Z,9.07
2023-04-01T04:03:12.371Z,9.14
2023-04-01T04:05:47.384Z,9.16
2023-04-01T04:08:15.098Z,9.20
2023-04-01T04:10:42.628Z,9.16
2023-04-01T04:13:09.604Z,9.18
2023-04-01T04:15:36.441Z,9.23
2023-04-01T04:18:03.384Z,9.18
2023-04-01T04:22:56.825Z,9.23
2023-04-01T04:25:23.790Z,9.23
2023-04-01T04:27:50.945Z,9.20
2023-04-01T04:30:17.817Z,9.19
2023-04-01T04:32:45.411Z,9.16
2023-04-01T04:35:12.491Z,9.15
2023-04-01T04:37:39.306Z,9.15
2023-04-01T04:40:06.808Z,9.15
2023-04-01T04:42:33.557Z,9.12
2023-04-01T04:45:00.424Z,9.09
2023-04-01T04:47:27.252Z,9.05
2023-04-01T04:49:54.038Z,9.00
2023-04-01T04:52:20.890Z,8.99
2023-04-01T04:54:47.691Z,8.97
2023-04-01T04:57:14.490Z,8.96
2023-04-01T04:59:42.109Z,8.90
2023-04-01T05:02:09.493Z,8.88
2023-04-01T05:04:37.847Z,8.85
2023-04-01T05:07:04.630Z,8.87
2023-04-01T05:09:32.233Z,8.89
2023-04-01T05:11:59.135Z,8.86
2023-04-01T05:14:25.957Z,8.79
2023-04-01T05:16:52.775Z,8.90
2023-04-01T05:19:20.120Z,8.84
2023-04-01T05:21:46.914Z,8.83
2023-04-01T05:24:13.799Z,8.76
2023-04-01T05:26:40.555Z,8.75
2023-04-01T05:29:07.459Z,8.78
2023-04-01T05:31:37.240Z,8.81
2023-04-01T05:34:04.494Z,8.82
2023-04-01T05:36:32.664Z,8.85
2023-04-01T05:38:59.429Z,8.90
2023-04-01T05:41:26.401Z,8.92
2023-04-01T05:43:53.248Z,8.91
2023-04-01T05:46:20.446Z,8.97
2023-04-01T05:48:47.462Z,8.93
2023-04-01T05:51:15.942Z,8.96
2023-04-01T05:53:43.432Z,8.99
2023-04-01T05:56:13.404Z,8.98
2023-04-01T05:58:40.858Z,8.98
2023-04-01T06:01:14.108Z,8.98
2023-04-01T06:03:43.460Z,9.00
2023-04-01T06:06:24.312Z,9.05
2023-04-01T06:08:54.496Z,9.11
2023-04-01T06:11:32.291Z,9.15
2023-04-01T06:14:01.720Z,9.15
2023-04-01T06:16:32.292Z,9.24
2023-04-01T06:19:18.218Z,9.19
2023-04-01T06:22:27.368Z,9.25
2023-04-01T06:28:32.546Z,9.33
2023-04-01T06:31:05.176Z,9.30
2023-04-01T06:34:07.924Z,9.31
2023-04-01T06:36:46.980Z,9.37
2023-04-01T06:39:26.601Z,9.35
2023-04-01T06:42:02.156Z,9.44
2023-04-01T06:44:32.196Z,9.55
2023-04-01T06:47:18.655Z,9.55
2023-04-01T06:49:54.961Z,9.74
2023-04-01T06:52:29.214Z,9.74
2023-04-01T06:58:00.270Z,9.84
2023-04-01T07:03:34.391Z,9.81
2023-04-01T07:06:05.965Z,10.01
2023-04-01T07:08:39.701Z,9.84
2023-04-01T07:11:11.810Z,9.76
2023-04-01T07:13:39.537Z,10.04
2023-04-01T07:16:24.810Z,9.90
2023-04-01T07:18:59.290Z,9.90
2023-04-01T07:21:39.430Z,10.11
2023-04-01T07:24:18.597Z,10.10
2023-04-01T07:26:46.933Z,10.10
2023-04-01T07:29:15.849Z,10.07
2023-04-01T07:32:23.705Z,10.10
2023-04-01T07:35:08.935Z,10.13
2023-04-01T07:37:38.587Z,10.31
2023-04-01T07:40:32.036Z,10.29
2023-04-01T07:43:20.698Z,10.83
2023-04-01T07:45:58.717Z,10.31
2023-04-01T07:48:38.552Z,10.36
2023-04-01T07:51:05.312Z,10.36
2023-04-01T07:53:40.491Z,10.45
2023-04-01T07:56:24.833Z,10.40
2023-04-01T07:59:08.423Z,10.37
2023-04-01T08:01:40.888Z,10.46
2023-04-01T08:04:26.778Z,10.45
2023-04-01T08:06:56.705Z,10.26
2023-04-01T08:09:39.501Z,10.09
2023-04-01T08:12:39.479Z,10.06
2023-04-01T08:15:22.549Z,9.97
2023-04-01T08:18:25.085Z,10.13
2023-04-01T08:20:58.733Z,10.25
2023-04-01T08:23:35.072Z,10.18
2023-04-01T08:26:15.150Z,10.30
2023-04-01T08:28:53.679Z,10.43
2023-04-01T08:31:33.772Z,10.27
2023-04-01T08:34:06.184Z,9.99
2023-04-01T08:36:39.483Z,9.81
2023-04-01T08:39:15.934Z,9.59
2023-04-01T08:41:54.978Z,9.55
2023-04-01T08:44:39.553Z,9.39
2023-04-01T08:47:31.265Z,9.37
2023-04-01T08:53:32.122Z,9.46
2023-04-01T08:56:14.407Z,9.74
2023-04-01T08:59:02.674Z,9.66
2023-04-01T09:04:39.810Z,9.65
2023-04-01T09:07:16.378Z,9.55
2023-04-01T09:09:51.972Z,9.92
2023-04-01T09:15:39.667Z,9.94
2023-04-01T09:18:09.506Z,10.20
2023-04-01T09:20:39.565Z,10.55
2023-04-01T09:23:12.700Z,10.32
2023-04-01T09:26:10.497Z,10.67
2023-04-01T09:31:27.398Z,10.90
2023-04-01T09:34:12.405Z,10.85
2023-04-01T09:36:53.048Z,10.78
2023-04-01T09:39:39.655Z,10.72
2023-04-01T09:42:21.834Z,10.76
2023-04-01T09:45:10.411Z,11.21
2023-04-01T09:47:39.652Z,11.35
2023-04-01T09:50:39.607Z,10.98
2023-04-01T09:53:33.528Z,10.69
2023-04-01T09:56:28.613Z,11.14
2023-04-01T09:59:32.858Z,10.69
2023-04-01T10:02:34.894Z,10.83
2023-04-01T10:05:39.624Z,10.58
2023-04-01T10:08:34.411Z,10.92
2023-04-01T10:11:31.590Z,10.94
2023-04-01T10:13:58.320Z,11.50
2023-04-01T10:19:39.551Z,11.66
2023-04-01T10:22:27.185Z,11.61
2023-04-01T10:25:19.890Z,11.38
2023-04-01T10:28:04.332Z,11.78
2023-04-01T10:30:39.637Z,11.74
2023-04-01T10:33:30.932Z,11.58
2023-04-01T10:36:22.893Z,11.70
2023-04-01T10:38:52.683Z,11.56
2023-04-01T10:41:43.488Z,11.31
2023-04-01T10:44:39.673Z,10.86
2023-04-01T10:47:18.335Z,11.19
2023-04-01T10:50:23.041Z,11.07
2023-04-01T10:53:22.098Z,10.87
2023-04-01T10:55:55.714Z,10.72
2023-04-01T10:58:38.671Z,11.16
2023-04-01T11:01:39.663Z,11.27
2023-04-01T11:04:25.282Z,10.65
2023-04-01T11:07:07.366Z,10.49
2023-04-01T11:09:38.652Z,10.31
2023-04-01T11:12:05.451Z,10.32
2023-04-01T11:14:35.046Z,10.65
2023-04-01T11:17:36.651Z,10.64
2023-04-01T11:20:31.599Z,10.48
2023-04-01T11:23:16.752Z,10.37
2023-04-01T11:26:10.036Z,10.42
2023-04-01T11:28:39.774Z,10.46
2023-04-01T11:31:39.751Z,10.50
2023-04-01T11:37:23.708Z,10.44
2023-04-01T11:39:58.192Z,10.46
2023-04-01T11:42:39.927Z,10.68
2023-04-01T11:45:16.993Z,10.38
2023-04-01T11:48:11.808Z,10.39
2023-04-01T11:50:38.754Z,10.34
2023-04-01T11:53:37.018Z,10.43
2023-04-01T11:56:16.020Z,10.41
2023-04-01T11:59:11.892Z,10.73
2023-04-01T12:01:40.071Z,10.83
2023-04-01T12:04:12.876Z,10.48
2023-04-01T12:06:39.744Z,10.24
2023-04-01T12:12:28.732Z,10.14
2023-04-01T12:15:25.117Z,10.39
2023-04-01T12:18:24.262Z,10.56
2023-04-01T12:20:56.477Z,10.63
2023-04-01T12:23:42.928Z,10.57
2023-04-01T12:26:28.657Z,10.78
2023-04-01T12:29:20.250Z,10.56
2023-04-01T12:32:05.672Z,10.80
2023-04-01T12:34:39.942Z,10.57
2023-04-01T12:37:35.819Z,10.88
2023-04-01T12:40:24.106Z,11.22
2023-04-01T12:43:00.581Z,11.12
2023-04-01T12:48:42.333Z,11.53
2023-04-01T12:51:22.392Z,11.26
2023-04-01T12:53:59.817Z,11.30
2023-04-01T12:56:38.713Z,11.30
2023-04-01T12:59:17.365Z,11.16
2023-04-01T13:02:12.977Z,11.03
2023-04-01T13:05:17.721Z,10.81
2023-04-01T13:08:14.675Z,10.88
2023-04-01T13:11:03.913Z,10.70
2023-04-01T13:13:39.692Z,10.48
2023-04-01T13:16:27.795Z,10.66
2023-04-01T13:19:16.123Z,10.57
2023-04-01T13:22:12.921Z,10.60
2023-04-01T13:25:01.889Z,10.61
2023-04-01T13:27:39.937Z,10.48
2023-04-01T13:30:06.902Z,10.92
2023-04-01T13:35:19.538Z,10.65
2023-04-01T13:41:39.652Z,10.57
2023-04-01T13:44:18.831Z,10.41
2023-04-01T13:47:03.540Z,10.37
2023-04-01T13:49:42.173Z,10.40
2023-04-01T13:52:26.688Z,10.52
2023-04-01T13:55:02.718Z,10.55
2023-04-01T13:57:36.277Z,10.66
2023-04-01T14:00:23.768Z,10.86
2023-04-01T14:03:00.110Z,11.00
2023-04-01T14:05:43.164Z,10.99
2023-04-01T14:08:39.729Z,10.57
2023-04-01T14:11:18.090Z,10.54
2023-04-01T14:14:01.472Z,10.64
2023-04-01T14:16:39.711Z,10.42
2023-04-01T14:19:27.344Z,10.47
2023-04-01T14:22:13.183Z,10.85
2023-04-01T14:25:17.897Z,11.46
2023-04-01T14:27:47.775Z,12.03
2023-04-01T14:30:38.731Z,11.86
2023-04-01T14:33:05.576Z,11.66
2023-04-01T14:35:38.803Z,11.17
2023-04-01T14:38:26.246Z,11.61
2023-04-01T14:40:56.245Z,11.77
2023-04-01T14:43:39.737Z,11.45
2023-04-01T14:46:33.656Z,10.99
2023-04-01T14:49:15.264Z,10.72
2023-04-01T14:51:42.770Z,10.44
2023-04-01T14:54:12.560Z,10.54
2023-04-01T14:57:06.935Z,10.52
2023-04-01T14:59:39.737Z,10.67
2023-04-01T15:02:28.595Z,10.78
2023-04-01T15:05:01.389Z,10.83
2023-04-01T15:07:38.761Z,10.72
2023-04-01T15:10:11.716Z,10.59
2023-04-01T15:12:38.769Z,10.50
2023-04-01T15:15:37.170Z,10.40
2023-04-01T15:18:16.918Z,10.60
2023-04-01T15:20:48.199Z,10.48
2023-04-01T15:23:39.756Z,10.55
2023-04-01T15:26:32.166Z,10.70
2023-04-01T15:29:27.882Z,11.01
2023-04-01T15:32:03.759Z,10.61
2023-04-01T15:34:39.864Z,10.51
2023-04-01T15:37:39.747Z,10.36
2023-04-01T15:40:24.469Z,10.28
2023-04-01T15:43:13.432Z,10.13
2023-04-01T15:45:46.859Z,10.07
2023-04-01T15:48:39.720Z,10.17
2023-04-01T15:51:19.256Z,10.26
2023-04-01T15:54:25.714Z,10.41
2023-04-01T15:57:09.689Z,10.46
2023-04-01T15:59:39.275Z,10.43
2023-04-01T16:02:19.739Z,10.44
2023-04-01T16:05:07.481Z,10.36
2023-04-01T16:07:38.817Z,10.21
2023-04-01T16:10:39.798Z,9.99
2023-04-01T16:13:34.435Z,10.09
2023-04-01T16:16:24.990Z,10.08
2023-04-01T16:18:54.670Z,10.25
2023-04-01T16:21:38.812Z,10.23
2023-04-01T16:24:16.476Z,10.33
2023-04-01T16:27:02.930Z,10.40
2023-04-01T16:29:39.804Z,10.31
2023-04-01T16:32:29.119Z,10.37
2023-04-01T16:35:05.673Z,10.37
2023-04-01T16:37:39.753Z,10.20
2023-04-01T16:40:21.444Z,10.17
2023-04-01T16:42:54.370Z,10.21
2023-04-01T16:45:36.865Z,10.17
2023-04-01T16:48:29.705Z,10.06
2023-04-01T16:51:16.519Z,9.97
2023-04-01T16:53:49.771Z,9.99
2023-04-01T16:56:25.977Z,10.03
2023-04-01T16:59:14.597Z,9.99
2023-04-01T17:02:10.406Z,9.97
2023-04-01T17:04:39.998Z,9.85
2023-04-01T17:07:29.566Z,9.83
2023-04-01T17:10:26.362Z,9.91
2023-04-01T17:12:53.099Z,9.87
2023-04-01T17:15:39.923Z,9.87
2023-04-01T17:18:34.001Z,9.97
2023-04-01T17:21:11.697Z,9.86
2023-04-01T17:23:43.096Z,9.92
2023-04-01T17:26:24.379Z,9.86
2023-04-01T17:29:20.730Z,9.92
2023-04-01T17:31:53.799Z,9.79
2023-04-01T17:34:39.923Z,9.72
2023-04-01T17:37:14.549Z,9.72
2023-04-01T17:40:17.627Z,9.77
2023-04-01T17:42:44.730Z,9.72
2023-04-01T17:45:21.896Z,9.67
2023-04-01T17:47:57.456Z,9.68
2023-04-01T17:50:39.873Z,9.59
2023-04-01T17:53:27.866Z,9.52
2023-04-01T17:56:12.736Z,9.47
2023-04-01T17:59:08.725Z,9.46
2023-04-01T18:01:39.909Z,9.43
2023-04-01T18:04:24.386Z,9.40
2023-04-01T18:07:09.581Z,9.38
2023-04-01T18:09:39.838Z,9.37
2023-04-01T18:12:26.267Z,9.36
2023-04-01T18:15:04.065Z,9.35
2023-04-01T18:17:40.008Z,9.31
2023-04-01T18:20:12.509Z,9.33
2023-04-01T18:23:13.985Z,9.32
2023-04-01T18:25:49.390Z,9.32
2023-04-01T18:28:34.161Z,9.37
2023-04-01T18:31:11.464Z,9.34
2023-04-01T18:33:41.087Z,9.31
2023-04-01T18:36:24.592Z,9.25
2023-04-01T18:38:57.440Z,9.28
2023-04-01T18:41:35.845Z,9.29
2023-04-01T18:44:21.095Z,9.26
2023-04-01T18:47:02.243Z,9.30
2023-04-01T18:49:39.849Z,9.25
2023-04-01T18:52:30.295Z,9.29
2023-04-01T18:55:22.915Z,9.30
2023-04-01T18:57:57.910Z,9.26
2023-04-01T19:03:33.760Z,9.26
2023-04-01T19:06:09.621Z,9.26
2023-04-01T19:08:40.968Z,9.19
2023-04-01T19:11:28.472Z,9.28
2023-04-01T19:14:04.338Z,9.24
2023-04-01T19:16:42.512Z,9.18
2023-04-01T19:19:19.276Z,9.26
2023-04-01T19:21:54.412Z,9.19
2023-04-01T19:24:34.662Z,9.19
2023-04-01T19:27:19.648Z,9.18
2023-04-01T19:29:52.485Z,9.15
2023-04-01T19:32:40.287Z,9.12
2023-04-01T19:35:31.284Z,9.10
2023-04-01T19:38:06.828Z,9.19
2023-04-01T19:40:38.935Z,9.19
2023-04-01T19:43:15.536Z,9.10
2023-04-01T19:46:10.422Z,9.23
2023-04-01T19:51:36.765Z,9.16
2023-04-01T19:54:45.221Z,9.25
2023-04-01T19:57:24.941Z,9.18
2023-04-01T20:00:25.060Z,9.11
2023-04-01T20:03:22.892Z,9.11
2023-04-01T20:06:11.762Z,9.07
2023-04-01T20:08:45.551Z,9.07
2023-04-01T20:11:26.997Z,9.10
2023-04-01T20:14:31.753Z,9.08
2023-04-01T20:17:07.673Z,9.09
2023-04-01T20:19:44.507Z,9.07
2023-04-01T20:22:29.872Z,9.06
2023-04-01T20:25:06.438Z,9.05
2023-04-01T20:27:42.384Z,9.08
2023-04-01T20:30:39.821Z,9.02
2023-04-01T20:33:43.740Z,8.99
2023-04-01T20:36:19.785Z,9.00
2023-04-01T20:38:48.645Z,9.01
2023-04-01T20:41:24.322Z,9.03
2023-04-01T20:44:12.688Z,9.05
2023-04-01T20:46:48.046Z,9.01
2023-04-01T20:49:48.607Z,9.00
2023-04-01T20:52:15.319Z,8.99
2023-04-01T20:54:48.502Z,9.00
2023-04-01T20:57:31.720Z,9.01
2023-04-01T21:00:17.082Z,8.98
2023-04-01T21:02:48.632Z,8.92
2023-04-01T21:05:32.080Z,8.93
2023-04-01T21:08:26.428Z,8.95
2023-04-01T21:11:02.831Z,8.95
2023-04-01T21:13:48.999Z,8.90
2023-04-01T21:16:48.597Z,8.88
2023-04-01T21:19:34.067Z,8.86
2023-04-01T21:22:10.354Z,8.83
2023-04-01T21:24:48.583Z,8.81
2023-04-01T21:27:41.766Z,8.82
2023-04-01T21:30:40.354Z,8.82
2023-04-01T21:33:16.903Z,8.76
2023-04-01T21:35:48.639Z,8.78
2023-04-01T21:38:37.889Z,8.70
2023-04-01T21:41:33.565Z,8.78
2023-04-01T21:44:39.074Z,8.79
2023-04-01T21:47:31.713Z,8.74
2023-04-01T21:50:14.047Z,8.69
2023-04-01T21:52:48.551Z,8.67
2023-04-01T21:55:18.018Z,8.68
2023-04-01T21:57:48.570Z,8.69
2023-04-01T22:00:19.177Z,8.77
2023-04-01T22:02:48.647Z,8.70
2023-04-01T22:05:29.376Z,8.75
2023-04-01T22:08:08.112Z,8.79
2023-04-01T22:10:47.777Z,8.76
2023-04-01T22:13:23.158Z,8.74
2023-04-01T22:16:38.552Z,8.85
2023-04-01T22:19:27.122Z,8.85
2023-04-01T22:22:02.758Z,8.76
2023-04-01T22:24:43.438Z,8.71
2023-04-01T22:27:28.365Z,8.73
2023-04-01T22:30:22.905Z,8.75
2023-04-01T22:32:54.259Z,8.73
2023-04-01T22:35:48.498Z,8.76
2023-04-01T22:38:33.966Z,8.75
2023-04-01T22:41:41.993Z,8.73
2023-04-01T22:44:21.160Z,8.74
2023-04-01T22:47:11.528Z,8.71
2023-04-01T22:49:49.659Z,8.82
2023-04-01T22:55:26.167Z,8.73
2023-04-01T22:58:39.189Z,8.70
2023-04-01T23:01:11.933Z,8.71
2023-04-01T23:03:45.145Z,8.70
2023-04-01T23:06:32.572Z,8.66
2023-04-01T23:09:22.215Z,8.63
2023-04-01T23:11:57.121Z,8.61
2023-04-01T23:14:27.921Z,8.60
2023-04-01T23:17:36.843Z,8.65
2023-04-01T23:20:16.439Z,8.66
2023-04-01T23:22:48.552Z,8.62
2023-04-01T23:25:15.588Z,8.64
2023-04-01T23:27:48.548Z,8.65
2023-04-01T23:30:41.651Z,8.68
2023-04-01T23:33:20.705Z,8.72
2023-04-01T23:35:48.652Z,8.59
2023-04-01T23:38:16.562Z,8.57
2023-04-01T23:40:43.646Z,8.54
2023-04-01T23:43:28.138Z,8.55
2023-04-01T23:46:01.078Z,8.49
2023-04-01T23:48:39.047Z,8.56
2023-04-01T23:51:16.032Z,8.56
2023-04-01T23:56:13.233Z,8.56
2023-04-01T23:58:45.886Z,8.53
